sensor_id;sensor_type;location;lat;lon;timestamp;P1;durP1;ratioP1;P2;durP2;ratioP2
24787;SDS011;12883;52.662;5.196;2024-01-30T00:01:38;27.20;;;27.10;;
24787;SDS011;12883;52.662;5.196;2024-01-30T00:04:04;28.20;;;28.10;;
24787;SDS011;12883;52.662;5.196;2024-01-30T00:06:29;29.60;;;29.50;;
24787;SDS011;12883;52.662;5.196;2024-01-30T00:08:54;28.70;;;28.60;;
24787;SDS011;12883;52.662;5.196;2024-01-30T00:11:20;26.70;;;26.60;;
24787;SDS011;12883;52.662;5.196;2024-01-30T00:13:46;28.90;;;28.80;;
24787;SDS011;12883;52.662;5.196;2024-01-30T00:16:20;28.50;;;28.40;;
24787;SDS011;12883;52.662;5.196;2024-01-30T00:18:47;29.20;;;29.10;;
24787;SDS011;12883;52.662;5.196;2024-01-30T00:21:12;28.70;;;28.60;;
24787;SDS011;12883;52.662;5.196;2024-01-30T00:23:38;28.67;;;28.57;;
24787;SDS011;12883;52.662;5.196;2024-01-30T00:26:03;28.13;;;28.03;;
24787;SDS011;12883;52.662;5.196;2024-01-30T00:28:30;29.63;;;29.53;;
24787;SDS011;12883;52.662;5.196;2024-01-30T00:30:55;29.00;;;28.90;;
24787;SDS011;12883;52.662;5.196;2024-01-30T00:33:20;29.03;;;28.93;;
24787;SDS011;12883;52.662;5.196;2024-01-30T00:35:46;28.87;;;28.77;;
24787;SDS011;12883;52.662;5.196;2024-01-30T00:38:12;27.73;;;27.63;;
24787;SDS011;12883;52.662;5.196;2024-01-30T00:40:37;28.40;;;28.30;;
24787;SDS011;12883;52.662;5.196;2024-01-30T00:43:02;28.07;;;27.87;;
24787;SDS011;12883;52.662;5.196;2024-01-30T00:45:28;28.30;;;28.20;;
24787;SDS011;12883;52.662;5.196;2024-01-30T00:47:53;29.87;;;29.77;;
24787;SDS011;12883;52.662;5.196;2024-01-30T00:50:18;29.03;;;28.93;;
24787;SDS011;12883;52.662;5.196;2024-01-30T00:52:44;29.40;;;29.30;;
24787;SDS011;12883;52.662;5.196;2024-01-30T00:55:10;28.53;;;28.43;;
24787;SDS011;12883;52.662;5.196;2024-01-30T00:57:36;27.83;;;27.73;;
24787;SDS011;12883;52.662;5.196;2024-01-30T01:00:01;28.23;;;28.13;;
24787;SDS011;12883;52.662;5.196;2024-01-30T01:02:28;28.53;;;28.43;;
24787;SDS011;12883;52.662;5.196;2024-01-30T01:04:53;27.73;;;27.63;;
24787;SDS011;12883;52.662;5.196;2024-01-30T01:07:19;28.77;;;28.67;;
24787;SDS011;12883;52.662;5.196;2024-01-30T01:09:44;28.93;;;28.83;;
24787;SDS011;12883;52.662;5.196;2024-01-30T01:12:09;29.20;;;29.10;;
24787;SDS011;12883;52.662;5.196;2024-01-30T01:14:35;27.93;;;27.83;;
24787;SDS011;12883;52.662;5.196;2024-01-30T01:17:01;28.23;;;28.13;;
24787;SDS011;12883;52.662;5.196;2024-01-30T01:19:27;28.63;;;28.53;;
24787;SDS011;12883;52.662;5.196;2024-01-30T01:21:52;28.37;;;28.27;;
24787;SDS011;12883;52.662;5.196;2024-01-30T01:24:18;27.60;;;27.50;;
24787;SDS011;12883;52.662;5.196;2024-01-30T01:26:43;28.40;;;28.30;;
24787;SDS011;12883;52.662;5.196;2024-01-30T01:29:09;30.70;;;30.60;;
24787;SDS011;12883;52.662;5.196;2024-01-30T01:31:37;27.97;;;27.87;;
24787;SDS011;12883;52.662;5.196;2024-01-30T01:34:12;28.80;;;28.70;;
24787;SDS011;12883;52.662;5.196;2024-01-30T01:36:38;28.90;;;28.80;;
24787;SDS011;12883;52.662;5.196;2024-01-30T01:39:03;28.10;;;28.00;;
24787;SDS011;12883;52.662;5.196;2024-01-30T01:41:30;28.60;;;28.50;;
24787;SDS011;12883;52.662;5.196;2024-01-30T01:43:56;29.30;;;29.20;;
24787;SDS011;12883;52.662;5.196;2024-01-30T01:46:22;28.70;;;28.60;;
24787;SDS011;12883;52.662;5.196;2024-01-30T01:48:47;28.20;;;28.10;;
24787;SDS011;12883;52.662;5.196;2024-01-30T01:51:13;27.70;;;27.60;;
24787;SDS011;12883;52.662;5.196;2024-01-30T01:53:39;31.27;;;31.07;;
24787;SDS011;12883;52.662;5.196;2024-01-30T01:56:05;28.27;;;28.17;;
24787;SDS011;12883;52.662;5.196;2024-01-30T01:58:31;27.67;;;27.57;;
24787;SDS011;12883;52.662;5.196;2024-01-30T02:00:56;28.83;;;28.73;;
24787;SDS011;12883;52.662;5.196;2024-01-30T02:03:23;29.13;;;28.97;;
24787;SDS011;12883;52.662;5.196;2024-01-30T02:05:50;26.97;;;26.87;;
24787;SDS011;12883;52.662;5.196;2024-01-30T02:08:15;28.70;;;28.60;;
24787;SDS011;12883;52.662;5.196;2024-01-30T02:10:41;28.00;;;27.90;;
24787;SDS011;12883;52.662;5.196;2024-01-30T02:13:06;27.87;;;27.77;;
24787;SDS011;12883;52.662;5.196;2024-01-30T02:15:31;28.33;;;28.23;;
24787;SDS011;12883;52.662;5.196;2024-01-30T02:17:57;27.60;;;27.50;;
24787;SDS011;12883;52.662;5.196;2024-01-30T02:20:23;28.97;;;28.87;;
24787;SDS011;12883;52.662;5.196;2024-01-30T02:22:50;26.87;;;26.77;;
24787;SDS011;12883;52.662;5.196;2024-01-30T02:25:17;26.63;;;26.53;;
24787;SDS011;12883;52.662;5.196;2024-01-30T02:27:43;25.93;;;25.83;;
24787;SDS011;12883;52.662;5.196;2024-01-30T02:30:08;27.03;;;26.93;;
24787;SDS011;12883;52.662;5.196;2024-01-30T02:32:34;25.27;;;25.17;;
24787;SDS011;12883;52.662;5.196;2024-01-30T02:34:59;26.10;;;26.00;;
24787;SDS011;12883;52.662;5.196;2024-01-30T02:37:24;27.77;;;27.67;;
24787;SDS011;12883;52.662;5.196;2024-01-30T02:39:50;27.53;;;27.43;;
24787;SDS011;12883;52.662;5.196;2024-01-30T02:42:15;27.30;;;27.20;;
24787;SDS011;12883;52.662;5.196;2024-01-30T02:44:40;26.63;;;26.53;;
24787;SDS011;12883;52.662;5.196;2024-01-30T02:47:06;25.47;;;25.37;;
24787;SDS011;12883;52.662;5.196;2024-01-30T02:49:31;25.97;;;25.87;;
24787;SDS011;12883;52.662;5.196;2024-01-30T02:51:57;26.00;;;25.90;;
24787;SDS011;12883;52.662;5.196;2024-01-30T02:54:22;26.13;;;26.03;;
24787;SDS011;12883;52.662;5.196;2024-01-30T02:56:47;24.90;;;24.80;;
24787;SDS011;12883;52.662;5.196;2024-01-30T02:59:13;25.97;;;25.87;;
24787;SDS011;12883;52.662;5.196;2024-01-30T03:01:42;25.23;;;25.13;;
24787;SDS011;12883;52.662;5.196;2024-01-30T03:04:09;25.20;;;25.10;;
24787;SDS011;12883;52.662;5.196;2024-01-30T03:06:34;22.80;;;22.70;;
24787;SDS011;12883;52.662;5.196;2024-01-30T03:08:59;24.13;;;24.03;;
24787;SDS011;12883;52.662;5.196;2024-01-30T03:11:25;23.03;;;22.93;;
24787;SDS011;12883;52.662;5.196;2024-01-30T03:13:50;23.93;;;23.83;;
24787;SDS011;12883;52.662;5.196;2024-01-30T03:16:15;24.10;;;24.00;;
24787;SDS011;12883;52.662;5.196;2024-01-30T03:18:41;23.07;;;22.97;;
24787;SDS011;12883;52.662;5.196;2024-01-30T03:21:06;22.63;;;22.53;;
24787;SDS011;12883;52.662;5.196;2024-01-30T03:23:31;23.07;;;22.97;;
24787;SDS011;12883;52.662;5.196;2024-01-30T03:25:57;22.33;;;22.23;;
24787;SDS011;12883;52.662;5.196;2024-01-30T03:28:23;21.90;;;21.80;;
24787;SDS011;12883;52.662;5.196;2024-01-30T03:30:48;22.60;;;22.50;;
24787;SDS011;12883;52.662;5.196;2024-01-30T03:33:13;21.73;;;21.63;;
24787;SDS011;12883;52.662;5.196;2024-01-30T03:35:39;22.77;;;22.67;;
24787;SDS011;12883;52.662;5.196;2024-01-30T03:38:04;21.97;;;21.87;;
24787;SDS011;12883;52.662;5.196;2024-01-30T03:40:29;22.57;;;22.47;;
24787;SDS011;12883;52.662;5.196;2024-01-30T03:42:55;21.90;;;21.80;;
24787;SDS011;12883;52.662;5.196;2024-01-30T03:45:20;21.33;;;21.23;;
24787;SDS011;12883;52.662;5.196;2024-01-30T03:47:45;21.37;;;21.27;;
24787;SDS011;12883;52.662;5.196;2024-01-30T03:50:11;21.07;;;20.97;;
24787;SDS011;12883;52.662;5.196;2024-01-30T03:52:36;21.33;;;21.23;;
24787;SDS011;12883;52.662;5.196;2024-01-30T03:55:01;20.63;;;20.53;;
24787;SDS011;12883;52.662;5.196;2024-01-30T03:57:27;20.50;;;20.40;;
24787;SDS011;12883;52.662;5.196;2024-01-30T03:59:52;19.87;;;19.77;;
24787;SDS011;12883;52.662;5.196;2024-01-30T04:02:18;20.50;;;20.40;;
24787;SDS011;12883;52.662;5.196;2024-01-30T04:04:43;20.23;;;20.13;;
24787;SDS011;12883;52.662;5.196;2024-01-30T04:07:09;20.07;;;19.97;;
24787;SDS011;12883;52.662;5.196;2024-01-30T04:09:34;18.50;;;18.40;;
24787;SDS011;12883;52.662;5.196;2024-01-30T04:11:59;19.13;;;19.03;;
24787;SDS011;12883;52.662;5.196;2024-01-30T04:14:27;19.83;;;19.73;;
24787;SDS011;12883;52.662;5.196;2024-01-30T04:16:53;20.03;;;19.93;;
24787;SDS011;12883;52.662;5.196;2024-01-30T04:19:18;19.73;;;19.63;;
24787;SDS011;12883;52.662;5.196;2024-01-30T04:21:44;20.63;;;20.53;;
24787;SDS011;12883;52.662;5.196;2024-01-30T04:24:09;19.70;;;19.60;;
24787;SDS011;12883;52.662;5.196;2024-01-30T04:26:34;20.47;;;20.37;;
24787;SDS011;12883;52.662;5.196;2024-01-30T04:29:00;19.27;;;19.17;;
24787;SDS011;12883;52.662;5.196;2024-01-30T04:31:25;18.53;;;18.43;;
24787;SDS011;12883;52.662;5.196;2024-01-30T04:33:50;19.50;;;19.40;;
24787;SDS011;12883;52.662;5.196;2024-01-30T04:36:16;18.87;;;18.77;;
24787;SDS011;12883;52.662;5.196;2024-01-30T04:38:41;19.33;;;19.23;;
24787;SDS011;12883;52.662;5.196;2024-01-30T04:41:07;19.20;;;19.10;;
24787;SDS011;12883;52.662;5.196;2024-01-30T04:43:32;19.67;;;19.57;;
24787;SDS011;12883;52.662;5.196;2024-01-30T04:45:57;18.90;;;18.80;;
24787;SDS011;12883;52.662;5.196;2024-01-30T04:48:23;18.70;;;18.60;;
24787;SDS011;12883;52.662;5.196;2024-01-30T04:50:48;19.97;;;19.87;;
24787;SDS011;12883;52.662;5.196;2024-01-30T04:53:14;20.30;;;20.20;;
24787;SDS011;12883;52.662;5.196;2024-01-30T04:55:39;18.13;;;18.03;;
24787;SDS011;12883;52.662;5.196;2024-01-30T04:58:04;19.13;;;19.03;;
24787;SDS011;12883;52.662;5.196;2024-01-30T05:00:30;19.07;;;18.97;;
24787;SDS011;12883;52.662;5.196;2024-01-30T05:02:55;19.07;;;18.97;;
24787;SDS011;12883;52.662;5.196;2024-01-30T05:05:20;18.20;;;18.13;;
24787;SDS011;12883;52.662;5.196;2024-01-30T05:07:46;19.30;;;19.20;;
24787;SDS011;12883;52.662;5.196;2024-01-30T05:10:12;18.77;;;18.67;;
24787;SDS011;12883;52.662;5.196;2024-01-30T05:12:38;20.23;;;20.13;;
24787;SDS011;12883;52.662;5.196;2024-01-30T05:15:04;19.93;;;19.83;;
24787;SDS011;12883;52.662;5.196;2024-01-30T05:17:29;20.07;;;19.97;;
24787;SDS011;12883;52.662;5.196;2024-01-30T05:19:55;19.53;;;19.43;;
24787;SDS011;12883;52.662;5.196;2024-01-30T05:22:20;17.43;;;17.43;;
24787;SDS011;12883;52.662;5.196;2024-01-30T05:24:45;19.17;;;19.07;;
24787;SDS011;12883;52.662;5.196;2024-01-30T05:27:11;19.57;;;19.47;;
24787;SDS011;12883;52.662;5.196;2024-01-30T05:29:38;19.50;;;19.40;;
24787;SDS011;12883;52.662;5.196;2024-01-30T05:32:04;18.47;;;18.37;;
24787;SDS011;12883;52.662;5.196;2024-01-30T05:34:30;18.67;;;18.57;;
24787;SDS011;12883;52.662;5.196;2024-01-30T05:36:56;18.63;;;18.53;;
24787;SDS011;12883;52.662;5.196;2024-01-30T05:39:21;18.83;;;18.73;;
24787;SDS011;12883;52.662;5.196;2024-01-30T05:41:46;17.97;;;17.87;;
24787;SDS011;12883;52.662;5.196;2024-01-30T05:44:12;17.70;;;17.60;;
24787;SDS011;12883;52.662;5.196;2024-01-30T05:46:37;18.23;;;18.13;;
24787;SDS011;12883;52.662;5.196;2024-01-30T05:49:02;18.60;;;18.50;;
24787;SDS011;12883;52.662;5.196;2024-01-30T05:51:28;18.77;;;18.67;;
24787;SDS011;12883;52.662;5.196;2024-01-30T05:53:53;17.60;;;17.50;;
24787;SDS011;12883;52.662;5.196;2024-01-30T05:56:19;18.63;;;18.53;;
24787;SDS011;12883;52.662;5.196;2024-01-30T05:58:44;17.30;;;17.20;;
24787;SDS011;12883;52.662;5.196;2024-01-30T06:01:10;17.97;;;17.97;;
24787;SDS011;12883;52.662;5.196;2024-01-30T06:03:35;17.30;;;17.20;;
24787;SDS011;12883;52.662;5.196;2024-01-30T06:06:01;19.37;;;19.27;;
24787;SDS011;12883;52.662;5.196;2024-01-30T06:08:26;18.13;;;18.03;;
24787;SDS011;12883;52.662;5.196;2024-01-30T06:10:51;17.87;;;17.77;;
24787;SDS011;12883;52.662;5.196;2024-01-30T06:13:17;18.87;;;18.77;;
24787;SDS011;12883;52.662;5.196;2024-01-30T06:15:42;19.43;;;19.33;;
24787;SDS011;12883;52.662;5.196;2024-01-30T06:18:08;18.50;;;18.40;;
24787;SDS011;12883;52.662;5.196;2024-01-30T06:20:33;18.13;;;18.03;;
24787;SDS011;12883;52.662;5.196;2024-01-30T06:22:59;18.43;;;18.33;;
24787;SDS011;12883;52.662;5.196;2024-01-30T06:25:24;17.43;;;17.33;;
24787;SDS011;12883;52.662;5.196;2024-01-30T06:27:49;18.67;;;18.57;;
24787;SDS011;12883;52.662;5.196;2024-01-30T06:30:15;18.23;;;18.13;;
24787;SDS011;12883;52.662;5.196;2024-01-30T06:32:40;18.60;;;18.50;;
24787;SDS011;12883;52.662;5.196;2024-01-30T06:35:06;18.13;;;18.03;;
24787;SDS011;12883;52.662;5.196;2024-01-30T06:37:31;18.47;;;18.37;;
24787;SDS011;12883;52.662;5.196;2024-01-30T06:39:57;17.23;;;17.13;;
24787;SDS011;12883;52.662;5.196;2024-01-30T06:42:22;17.20;;;17.10;;
24787;SDS011;12883;52.662;5.196;2024-01-30T06:44:48;17.00;;;17.00;;
24787;SDS011;12883;52.662;5.196;2024-01-30T06:47:13;17.47;;;17.37;;
24787;SDS011;12883;52.662;5.196;2024-01-30T06:49:38;17.47;;;17.37;;
24787;SDS011;12883;52.662;5.196;2024-01-30T06:52:07;17.43;;;17.40;;
24787;SDS011;12883;52.662;5.196;2024-01-30T06:54:33;17.63;;;17.53;;
24787;SDS011;12883;52.662;5.196;2024-01-30T06:56:58;16.47;;;16.37;;
24787;SDS011;12883;52.662;5.196;2024-01-30T06:59:24;17.83;;;17.73;;
24787;SDS011;12883;52.662;5.196;2024-01-30T07:01:50;18.07;;;17.97;;
24787;SDS011;12883;52.662;5.196;2024-01-30T07:04:15;16.37;;;16.27;;
24787;SDS011;12883;52.662;5.196;2024-01-30T07:06:41;18.47;;;18.37;;
24787;SDS011;12883;52.662;5.196;2024-01-30T07:09:06;17.43;;;17.33;;
24787;SDS011;12883;52.662;5.196;2024-01-30T07:11:32;17.87;;;17.77;;
24787;SDS011;12883;52.662;5.196;2024-01-30T07:13:57;17.90;;;17.80;;
24787;SDS011;12883;52.662;5.196;2024-01-30T07:16:22;17.83;;;17.73;;
24787;SDS011;12883;52.662;5.196;2024-01-30T07:18:48;17.03;;;17.03;;
24787;SDS011;12883;52.662;5.196;2024-01-30T07:21:14;17.63;;;17.53;;
24787;SDS011;12883;52.662;5.196;2024-01-30T07:23:40;17.10;;;17.00;;
24787;SDS011;12883;52.662;5.196;2024-01-30T07:26:06;16.97;;;16.90;;
24787;SDS011;12883;52.662;5.196;2024-01-30T07:28:31;17.23;;;17.13;;
24787;SDS011;12883;52.662;5.196;2024-01-30T07:30:57;17.50;;;17.40;;
24787;SDS011;12883;52.662;5.196;2024-01-30T07:33:23;16.30;;;16.20;;
24787;SDS011;12883;52.662;5.196;2024-01-30T07:35:48;17.20;;;17.10;;
24787;SDS011;12883;52.662;5.196;2024-01-30T07:38:14;17.20;;;17.10;;
24787;SDS011;12883;52.662;5.196;2024-01-30T07:40:39;17.07;;;16.97;;
24787;SDS011;12883;52.662;5.196;2024-01-30T07:43:04;16.20;;;16.20;;
24787;SDS011;12883;52.662;5.196;2024-01-30T07:45:30;16.87;;;16.77;;
24787;SDS011;12883;52.662;5.196;2024-01-30T07:47:58;16.03;;;15.93;;
24787;SDS011;12883;52.662;5.196;2024-01-30T07:50:27;16.03;;;16.03;;
24787;SDS011;12883;52.662;5.196;2024-01-30T07:52:52;16.13;;;16.10;;
24787;SDS011;12883;52.662;5.196;2024-01-30T07:55:23;16.93;;;16.83;;
24787;SDS011;12883;52.662;5.196;2024-01-30T07:57:56;16.23;;;16.13;;
24787;SDS011;12883;52.662;5.196;2024-01-30T08:00:22;16.60;;;16.50;;
24787;SDS011;12883;52.662;5.196;2024-01-30T08:02:47;16.83;;;16.73;;
24787;SDS011;12883;52.662;5.196;2024-01-30T08:05:13;16.17;;;16.07;;
24787;SDS011;12883;52.662;5.196;2024-01-30T08:07:40;15.60;;;15.60;;
24787;SDS011;12883;52.662;5.196;2024-01-30T08:10:07;15.77;;;15.67;;
24787;SDS011;12883;52.662;5.196;2024-01-30T08:12:33;15.43;;;15.43;;
24787;SDS011;12883;52.662;5.196;2024-01-30T08:14:58;15.97;;;15.97;;
24787;SDS011;12883;52.662;5.196;2024-01-30T08:17:23;15.00;;;15.00;;
24787;SDS011;12883;52.662;5.196;2024-01-30T08:19:49;16.13;;;16.03;;
24787;SDS011;12883;52.662;5.196;2024-01-30T08:22:14;16.33;;;16.23;;
24787;SDS011;12883;52.662;5.196;2024-01-30T08:24:40;15.17;;;15.17;;
24787;SDS011;12883;52.662;5.196;2024-01-30T08:27:06;15.47;;;15.47;;
24787;SDS011;12883;52.662;5.196;2024-01-30T08:29:34;15.40;;;15.40;;
24787;SDS011;12883;52.662;5.196;2024-01-30T08:32:00;15.67;;;15.57;;
24787;SDS011;12883;52.662;5.196;2024-01-30T08:34:25;15.00;;;15.00;;
24787;SDS011;12883;52.662;5.196;2024-01-30T08:36:50;15.10;;;15.10;;
24787;SDS011;12883;52.662;5.196;2024-01-30T08:39:16;15.23;;;15.13;;
24787;SDS011;12883;52.662;5.196;2024-01-30T08:41:41;14.60;;;14.60;;
24787;SDS011;12883;52.662;5.196;2024-01-30T08:44:06;15.10;;;15.10;;
24787;SDS011;12883;52.662;5.196;2024-01-30T08:46:32;14.60;;;14.53;;
24787;SDS011;12883;52.662;5.196;2024-01-30T08:48:57;14.07;;;14.07;;
24787;SDS011;12883;52.662;5.196;2024-01-30T08:51:23;14.10;;;14.10;;
24787;SDS011;12883;52.662;5.196;2024-01-30T08:53:48;14.73;;;14.73;;
24787;SDS011;12883;52.662;5.196;2024-01-30T08:56:13;14.27;;;14.27;;
24787;SDS011;12883;52.662;5.196;2024-01-30T08:58:41;14.37;;;14.37;;
24787;SDS011;12883;52.662;5.196;2024-01-30T09:01:06;13.87;;;13.83;;
24787;SDS011;12883;52.662;5.196;2024-01-30T09:03:31;15.30;;;15.20;;
24787;SDS011;12883;52.662;5.196;2024-01-30T09:05:57;15.13;;;15.13;;
24787;SDS011;12883;52.662;5.196;2024-01-30T09:08:22;13.63;;;13.63;;
24787;SDS011;12883;52.662;5.196;2024-01-30T09:10:48;14.63;;;14.53;;
24787;SDS011;12883;52.662;5.196;2024-01-30T09:13:14;15.43;;;15.43;;
24787;SDS011;12883;52.662;5.196;2024-01-30T09:15:40;14.77;;;14.67;;
24787;SDS011;12883;52.662;5.196;2024-01-30T09:18:05;15.03;;;15.03;;
24787;SDS011;12883;52.662;5.196;2024-01-30T09:20:31;14.47;;;14.37;;
24787;SDS011;12883;52.662;5.196;2024-01-30T09:22:57;15.03;;;14.93;;
24787;SDS011;12883;52.662;5.196;2024-01-30T09:25:22;15.10;;;15.00;;
24787;SDS011;12883;52.662;5.196;2024-01-30T09:27:47;14.87;;;14.77;;
24787;SDS011;12883;52.662;5.196;2024-01-30T09:30:13;13.93;;;13.83;;
24787;SDS011;12883;52.662;5.196;2024-01-30T09:32:39;12.67;;;12.57;;
24787;SDS011;12883;52.662;5.196;2024-01-30T09:35:05;10.80;;;10.70;;
24787;SDS011;12883;52.662;5.196;2024-01-30T09:37:31;8.33;;;8.23;;
24787;SDS011;12883;52.662;5.196;2024-01-30T09:39:56;8.10;;;8.03;;
24787;SDS011;12883;52.662;5.196;2024-01-30T09:42:33;7.50;;;7.40;;
24787;SDS011;12883;52.662;5.196;2024-01-30T09:45:01;7.67;;;7.57;;
24787;SDS011;12883;52.662;5.196;2024-01-30T09:47:28;7.53;;;7.43;;
24787;SDS011;12883;52.662;5.196;2024-01-30T09:50:16;8.00;;;7.90;;
24787;SDS011;12883;52.662;5.196;2024-01-30T09:52:45;8.13;;;8.13;;
24787;SDS011;12883;52.662;5.196;2024-01-30T09:55:12;7.63;;;7.53;;
24787;SDS011;12883;52.662;5.196;2024-01-30T09:57:37;7.07;;;6.97;;
24787;SDS011;12883;52.662;5.196;2024-01-30T10:00:03;7.73;;;7.63;;
24787;SDS011;12883;52.662;5.196;2024-01-30T10:02:31;6.57;;;6.47;;
24787;SDS011;12883;52.662;5.196;2024-01-30T10:04:57;6.03;;;6.00;;
24787;SDS011;12883;52.662;5.196;2024-01-30T10:07:22;5.13;;;5.13;;
24787;SDS011;12883;52.662;5.196;2024-01-30T10:09:48;5.00;;;5.00;;
24787;SDS011;12883;52.662;5.196;2024-01-30T10:12:14;3.17;;;3.17;;
24787;SDS011;12883;52.662;5.196;2024-01-30T10:14:40;3.27;;;3.27;;
24787;SDS011;12883;52.662;5.196;2024-01-30T10:17:09;3.03;;;3.03;;
24787;SDS011;12883;52.662;5.196;2024-01-30T10:19:37;3.33;;;3.30;;
24787;SDS011;12883;52.662;5.196;2024-01-30T10:22:03;3.00;;;3.00;;
24787;SDS011;12883;52.662;5.196;2024-01-30T10:24:29;3.00;;;3.00;;
24787;SDS011;12883;52.662;5.196;2024-01-30T10:26:55;3.13;;;3.13;;
24787;SDS011;12883;52.662;5.196;2024-01-30T10:29:20;3.10;;;3.10;;
24787;SDS011;12883;52.662;5.196;2024-01-30T10:31:56;3.80;;;3.80;;
24787;SDS011;12883;52.662;5.196;2024-01-30T10:34:22;3.13;;;3.13;;
24787;SDS011;12883;52.662;5.196;2024-01-30T10:36:48;3.67;;;3.67;;
24787;SDS011;12883;52.662;5.196;2024-01-30T10:39:16;3.63;;;3.63;;
24787;SDS011;12883;52.662;5.196;2024-01-30T10:41:43;2.73;;;2.73;;
24787;SDS011;12883;52.662;5.196;2024-01-30T10:44:09;3.17;;;3.17;;
24787;SDS011;12883;52.662;5.196;2024-01-30T10:46:37;3.40;;;3.40;;
24787;SDS011;12883;52.662;5.196;2024-01-30T10:49:04;3.23;;;3.23;;
24787;SDS011;12883;52.662;5.196;2024-01-30T10:51:31;2.93;;;2.93;;
24787;SDS011;12883;52.662;5.196;2024-01-30T10:53:57;2.87;;;2.87;;
24787;SDS011;12883;52.662;5.196;2024-01-30T10:56:23;3.20;;;3.20;;
24787;SDS011;12883;52.662;5.196;2024-01-30T10:58:52;3.47;;;3.47;;
24787;SDS011;12883;52.662;5.196;2024-01-30T11:01:19;2.67;;;2.67;;
24787;SDS011;12883;52.662;5.196;2024-01-30T11:03:48;3.60;;;3.60;;
24787;SDS011;12883;52.662;5.196;2024-01-30T11:06:15;3.70;;;3.70;;
24787;SDS011;12883;52.662;5.196;2024-01-30T11:08:43;2.70;;;2.70;;
24787;SDS011;12883;52.662;5.196;2024-01-30T11:11:10;2.93;;;2.93;;
24787;SDS011;12883;52.662;5.196;2024-01-30T11:13:35;2.77;;;2.77;;
24787;SDS011;12883;52.662;5.196;2024-01-30T11:16:04;2.83;;;2.83;;
24787;SDS011;12883;52.662;5.196;2024-01-30T11:18:30;2.00;;;2.00;;
24787;SDS011;12883;52.662;5.196;2024-01-30T11:20:57;1.80;;;1.80;;
24787;SDS011;12883;52.662;5.196;2024-01-30T11:23:23;2.00;;;2.00;;
24787;SDS011;12883;52.662;5.196;2024-01-30T11:25:51;1.90;;;1.90;;
24787;SDS011;12883;52.662;5.196;2024-01-30T11:28:21;1.70;;;1.70;;
24787;SDS011;12883;52.662;5.196;2024-01-30T11:30:47;2.03;;;2.03;;
24787;SDS011;12883;52.662;5.196;2024-01-30T11:33:16;1.77;;;1.77;;
24787;SDS011;12883;52.662;5.196;2024-01-30T11:35:56;1.80;;;1.80;;
24787;SDS011;12883;52.662;5.196;2024-01-30T11:38:24;1.53;;;1.53;;
24787;SDS011;12883;52.662;5.196;2024-01-30T11:40:50;1.37;;;1.37;;
24787;SDS011;12883;52.662;5.196;2024-01-30T11:43:17;1.70;;;1.70;;
24787;SDS011;12883;52.662;5.196;2024-01-30T11:45:44;1.63;;;1.63;;
24787;SDS011;12883;52.662;5.196;2024-01-30T11:48:11;2.00;;;2.00;;
24787;SDS011;12883;52.662;5.196;2024-01-30T11:50:37;1.93;;;1.93;;
24787;SDS011;12883;52.662;5.196;2024-01-30T11:53:05;2.80;;;2.80;;
24787;SDS011;12883;52.662;5.196;2024-01-30T11:55:31;2.03;;;2.03;;
24787;SDS011;12883;52.662;5.196;2024-01-30T11:57:57;2.50;;;2.50;;
24787;SDS011;12883;52.662;5.196;2024-01-30T12:00:23;2.00;;;2.00;;
24787;SDS011;12883;52.662;5.196;2024-01-30T12:02:49;2.67;;;2.67;;
24787;SDS011;12883;52.662;5.196;2024-01-30T12:05:15;2.70;;;2.70;;
24787;SDS011;12883;52.662;5.196;2024-01-30T12:07:43;2.03;;;2.03;;
24787;SDS011;12883;52.662;5.196;2024-01-30T12:10:09;3.30;;;3.30;;
24787;SDS011;12883;52.662;5.196;2024-01-30T12:12:34;2.30;;;2.30;;
24787;SDS011;12883;52.662;5.196;2024-01-30T12:15:00;2.57;;;2.57;;
24787;SDS011;12883;52.662;5.196;2024-01-30T12:17:29;2.43;;;2.43;;
24787;SDS011;12883;52.662;5.196;2024-01-30T12:20:02;2.27;;;2.27;;
24787;SDS011;12883;52.662;5.196;2024-01-30T12:22:28;2.90;;;2.90;;
24787;SDS011;12883;52.662;5.196;2024-01-30T12:24:53;2.50;;;2.50;;
24787;SDS011;12883;52.662;5.196;2024-01-30T12:27:19;2.80;;;2.80;;
24787;SDS011;12883;52.662;5.196;2024-01-30T12:29:44;2.50;;;2.50;;
24787;SDS011;12883;52.662;5.196;2024-01-30T12:32:14;2.03;;;2.03;;
24787;SDS011;12883;52.662;5.196;2024-01-30T12:34:41;2.77;;;2.77;;
24787;SDS011;12883;52.662;5.196;2024-01-30T12:37:07;1.70;;;1.70;;
24787;SDS011;12883;52.662;5.196;2024-01-30T12:39:34;2.93;;;2.93;;
24787;SDS011;12883;52.662;5.196;2024-01-30T12:42:00;2.43;;;2.43;;
24787;SDS011;12883;52.662;5.196;2024-01-30T12:44:25;2.50;;;2.50;;
24787;SDS011;12883;52.662;5.196;2024-01-30T12:46:51;2.20;;;2.20;;
24787;SDS011;12883;52.662;5.196;2024-01-30T12:49:16;2.13;;;2.13;;
24787;SDS011;12883;52.662;5.196;2024-01-30T12:51:42;2.87;;;2.87;;
24787;SDS011;12883;52.662;5.196;2024-01-30T12:54:07;2.30;;;2.30;;
24787;SDS011;12883;52.662;5.196;2024-01-30T12:56:32;2.97;;;2.97;;
24787;SDS011;12883;52.662;5.196;2024-01-30T12:58:58;2.20;;;2.20;;
24787;SDS011;12883;52.662;5.196;2024-01-30T13:01:24;2.50;;;2.50;;
24787;SDS011;12883;52.662;5.196;2024-01-30T13:03:49;2.70;;;2.70;;
24787;SDS011;12883;52.662;5.196;2024-01-30T13:06:15;3.43;;;3.43;;
24787;SDS011;12883;52.662;5.196;2024-01-30T13:08:40;3.03;;;3.03;;
24787;SDS011;12883;52.662;5.196;2024-01-30T13:11:05;3.10;;;3.10;;
24787;SDS011;12883;52.662;5.196;2024-01-30T13:13:31;3.87;;;3.87;;
24787;SDS011;12883;52.662;5.196;2024-01-30T13:15:57;3.23;;;3.23;;
24787;SDS011;12883;52.662;5.196;2024-01-30T13:18:22;3.70;;;3.70;;
24787;SDS011;12883;52.662;5.196;2024-01-30T13:20:47;3.70;;;3.70;;
24787;SDS011;12883;52.662;5.196;2024-01-30T13:23:13;3.40;;;3.40;;
24787;SDS011;12883;52.662;5.196;2024-01-30T13:25:38;4.20;;;4.20;;
24787;SDS011;12883;52.662;5.196;2024-01-30T13:28:04;2.93;;;2.93;;
24787;SDS011;12883;52.662;5.196;2024-01-30T13:30:29;3.17;;;3.17;;
24787;SDS011;12883;52.662;5.196;2024-01-30T13:32:54;3.37;;;3.37;;
24787;SDS011;12883;52.662;5.196;2024-01-30T13:35:20;2.33;;;2.33;;
24787;SDS011;12883;52.662;5.196;2024-01-30T13:37:45;2.20;;;2.20;;
24787;SDS011;12883;52.662;5.196;2024-01-30T13:40:12;2.30;;;2.30;;
24787;SDS011;12883;52.662;5.196;2024-01-30T13:42:39;1.90;;;1.90;;
24787;SDS011;12883;52.662;5.196;2024-01-30T13:45:05;2.37;;;2.37;;
24787;SDS011;12883;52.662;5.196;2024-01-30T13:47:31;1.90;;;1.90;;
24787;SDS011;12883;52.662;5.196;2024-01-30T13:49:56;1.97;;;1.97;;
24787;SDS011;12883;52.662;5.196;2024-01-30T13:52:22;2.00;;;2.00;;
24787;SDS011;12883;52.662;5.196;2024-01-30T13:54:47;2.10;;;2.10;;
24787;SDS011;12883;52.662;5.196;2024-01-30T13:57:13;2.37;;;2.37;;
24787;SDS011;12883;52.662;5.196;2024-01-30T13:59:38;2.77;;;2.77;;
24787;SDS011;12883;52.662;5.196;2024-01-30T14:02:04;1.90;;;1.90;;
24787;SDS011;12883;52.662;5.196;2024-01-30T14:04:30;2.17;;;2.17;;
24787;SDS011;12883;52.662;5.196;2024-01-30T14:06:56;2.80;;;2.80;;
24787;SDS011;12883;52.662;5.196;2024-01-30T14:09:21;3.20;;;3.20;;
24787;SDS011;12883;52.662;5.196;2024-01-30T14:11:46;3.07;;;3.07;;
24787;SDS011;12883;52.662;5.196;2024-01-30T14:14:12;3.30;;;3.30;;
24787;SDS011;12883;52.662;5.196;2024-01-30T14:16:37;3.93;;;3.93;;
24787;SDS011;12883;52.662;5.196;2024-01-30T14:19:03;3.93;;;3.93;;
24787;SDS011;12883;52.662;5.196;2024-01-30T14:21:28;4.87;;;4.87;;
24787;SDS011;12883;52.662;5.196;2024-01-30T14:23:53;4.10;;;4.10;;